createdAt,value
2023-10-25T00:02:01.369Z,13.10
2023-10-25T00:04:28.339Z,13.07
2023-10-25T00:06:55.427Z,13.07
2023-10-25T00:09:22.528Z,13.07
2023-10-25T00:11:49.528Z,13.05
2023-10-25T00:14:16.435Z,13.07
2023-10-25T00:16:43.411Z,13.08
2023-10-25T00:19:10.547Z,13.09
2023-10-25T00:21:42.933Z,13.09
2023-10-25T00:24:10.106Z,13.11
2023-10-25T00:26:37.065Z,13.19
2023-10-25T00:29:04.323Z,13.21
2023-10-25T00:31:31.334Z,13.21
2023-10-25T00:33:58.781Z,13.25
2023-10-25T00:36:25.747Z,13.23
2023-10-25T00:38:52.850Z,13.22
2023-10-25T00:41:19.885Z,13.14
2023-10-25T00:43:46.831Z,13.11
2023-10-25T00:46:15.005Z,13.05
2023-10-25T00:48:45.090Z,13.05
2023-10-25T00:51:14.161Z,13.05
2023-10-25T00:53:49.333Z,13.03
2023-10-25T00:56:18.463Z,13.01
2023-10-25T00:58:48.909Z,13.00
2023-10-25T01:01:16.781Z,12.94
2023-10-25T01:03:44.012Z,12.99
2023-10-25T01:06:11.520Z,12.94
2023-10-25T01:08:39.022Z,12.86
2023-10-25T01:11:06.618Z,12.76
2023-10-25T01:13:33.729Z,12.72
2023-10-25T01:16:00.899Z,12.72
2023-10-25T01:18:28.411Z,12.70
2023-10-25T01:20:55.910Z,12.65
2023-10-25T01:23:23.328Z,12.68
2023-10-25T01:25:50.316Z,12.69
2023-10-25T01:28:17.539Z,12.68
2023-10-25T01:30:44.860Z,12.71
2023-10-25T01:33:11.911Z,12.67
2023-10-25T01:35:39.338Z,12.71
2023-10-25T01:38:06.258Z,12.72
2023-10-25T01:40:33.390Z,12.72
2023-10-25T01:43:00.349Z,12.76
2023-10-25T01:45:28.837Z,12.76
2023-10-25T01:47:56.018Z,12.74
2023-10-25T01:50:23.514Z,12.64
2023-10-25T01:52:50.566Z,12.57
2023-10-25T01:55:17.698Z,12.50
2023-10-25T01:57:45.964Z,12.54
2023-10-25T02:00:13.405Z,12.52
2023-10-25T02:02:40.865Z,12.50
2023-10-25T02:05:08.512Z,12.42
2023-10-25T02:07:36.018Z,12.38
2023-10-25T02:10:03.959Z,12.36
2023-10-25T02:12:31.021Z,12.38
2023-10-25T02:14:57.967Z,12.38
2023-10-25T02:17:25.087Z,12.44
2023-10-25T02:19:52.145Z,12.42
2023-10-25T02:22:19.153Z,12.46
2023-10-25T02:24:46.195Z,12.43
2023-10-25T02:27:13.143Z,12.48
2023-10-25T02:29:40.548Z,12.48
2023-10-25T02:32:09.331Z,12.50
2023-10-25T02:34:38.272Z,12.53
2023-10-25T02:37:05.756Z,12.56
2023-10-25T02:39:33.333Z,12.55
2023-10-25T02:42:00.344Z,12.62
2023-10-25T02:44:27.430Z,12.58
2023-10-25T02:46:56.961Z,12.57
2023-10-25T02:49:23.870Z,12.54
2023-10-25T02:51:50.758Z,12.53
2023-10-25T02:54:18.761Z,12.53
2023-10-25T02:56:45.664Z,12.58
2023-10-25T02:59:12.620Z,12.57
2023-10-25T03:01:39.607Z,12.62
2023-10-25T03:04:06.917Z,12.61
2023-10-25T03:06:34.184Z,12.63
2023-10-25T03:09:01.205Z,12.62
2023-10-25T03:11:28.143Z,12.64
2023-10-25T03:13:55.197Z,12.60
2023-10-25T03:16:22.417Z,12.60
2023-10-25T03:18:49.552Z,12.64
2023-10-25T03:21:16.483Z,12.64
2023-10-25T03:23:43.497Z,12.66
2023-10-25T03:26:11.071Z,12.62
2023-10-25T03:28:40.993Z,12.61
2023-10-25T03:31:10.350Z,12.60
2023-10-25T03:33:37.752Z,12.61
2023-10-25T03:36:05.193Z,12.64
2023-10-25T03:38:32.150Z,12.60
2023-10-25T03:41:06.213Z,12.62
2023-10-25T03:43:34.138Z,12.63
2023-10-25T03:46:08.745Z,12.56
2023-10-25T03:48:37.118Z,12.50
2023-10-25T03:51:08.540Z,12.53
2023-10-25T03:53:39.566Z,12.48
2023-10-25T03:56:07.686Z,12.41
2023-10-25T03:58:34.583Z,12.39
2023-10-25T04:01:03.293Z,12.39
2023-10-25T04:03:30.736Z,12.40
2023-10-25T04:05:58.308Z,12.39
2023-10-25T04:08:26.616Z,12.40
2023-10-25T04:10:58.271Z,12.40
2023-10-25T04:13:25.818Z,12.37
2023-10-25T04:16:00.637Z,12.34
2023-10-25T04:18:31.947Z,12.32
2023-10-25T04:21:00.374Z,12.32
2023-10-25T04:23:30.109Z,12.34
2023-10-25T04:26:12.210Z,12.34
2023-10-25T04:28:42.417Z,12.30
2023-10-25T04:31:10.432Z,12.32
2023-10-25T04:33:38.592Z,12.32
2023-10-25T04:36:06.871Z,12.30
2023-10-25T04:38:33.956Z,12.35
2023-10-25T04:41:00.937Z,12.32
2023-10-25T04:43:30.847Z,12.33
2023-10-25T04:45:58.787Z,12.31
2023-10-25T04:48:26.102Z,12.35
2023-10-25T04:50:53.072Z,12.37
2023-10-25T04:53:19.984Z,12.34
2023-10-25T04:55:47.965Z,12.34
2023-10-25T04:58:15.205Z,12.32
2023-10-25T05:00:42.461Z,12.28
2023-10-25T05:03:15.233Z,12.28
2023-10-25T05:05:42.252Z,12.32
2023-10-25T05:08:09.996Z,12.30
2023-10-25T05:10:37.404Z,12.34
2023-10-25T05:13:04.757Z,12.34
2023-10-25T05:15:32.823Z,12.37
2023-10-25T05:18:00.091Z,12.35
2023-10-25T05:20:28.753Z,12.34
2023-10-25T05:22:59.625Z,12.36
2023-10-25T05:25:26.883Z,12.41
2023-10-25T05:27:59.207Z,12.49
2023-10-25T05:30:34.778Z,12.50
2023-10-25T05:33:06.840Z,12.45
2023-10-25T05:35:34.255Z,12.42
2023-10-25T05:38:04.004Z,12.39
2023-10-25T05:40:31.104Z,12.47
2023-10-25T05:43:01.905Z,12.51
2023-10-25T05:45:28.870Z,12.48
2023-10-25T05:47:56.009Z,12.46
2023-10-25T05:50:23.392Z,12.53
2023-10-25T05:52:50.557Z,12.53
2023-10-25T05:55:17.934Z,12.44
2023-10-25T05:57:47.629Z,12.43
2023-10-25T06:00:15.936Z,12.43
2023-10-25T06:02:45.328Z,12.43
2023-10-25T06:05:15.101Z,12.45
2023-10-25T06:07:42.959Z,12.41
2023-10-25T06:10:10.610Z,12.36
2023-10-25T06:12:37.980Z,12.38
2023-10-25T06:15:05.896Z,12.40
2023-10-25T06:17:33.417Z,12.37
2023-10-25T06:20:00.703Z,12.34
2023-10-25T06:22:27.978Z,12.34
2023-10-25T06:24:54.999Z,12.31
2023-10-25T06:27:22.076Z,12.30
2023-10-25T06:29:49.109Z,12.25
2023-10-25T06:32:15.983Z,12.31
2023-10-25T06:34:43.197Z,12.35
2023-10-25T06:37:10.643Z,12.25
2023-10-25T06:39:37.853Z,12.21
2023-10-25T06:42:05.293Z,12.16
2023-10-25T06:44:33.607Z,12.12
2023-10-25T06:47:00.919Z,12.09
2023-10-25T06:49:28.225Z,12.08
2023-10-25T06:51:55.656Z,12.07
2023-10-25T06:54:23.107Z,12.10
2023-10-25T06:56:50.299Z,12.12
2023-10-25T06:59:17.752Z,12.08
2023-10-25T07:01:47.147Z,12.07
2023-10-25T07:04:18.292Z,12.06
2023-10-25T07:06:47.210Z,12.08
2023-10-25T07:09:15.721Z,12.04
2023-10-25T07:11:42.688Z,12.09
2023-10-25T07:14:09.731Z,12.09
2023-10-25T07:16:37.945Z,12.11
2023-10-25T07:19:04.977Z,12.10
2023-10-25T07:21:32.120Z,12.07
2023-10-25T07:23:59.030Z,12.11
2023-10-25T07:26:25.918Z,12.24
2023-10-25T07:28:52.759Z,12.22
2023-10-25T07:31:19.767Z,12.14
2023-10-25T07:33:46.787Z,12.17
2023-10-25T07:36:13.775Z,12.22
2023-10-25T07:38:40.871Z,12.25
2023-10-25T07:41:07.886Z,12.22
2023-10-25T07:43:34.887Z,12.14
2023-10-25T07:46:01.985Z,12.19
2023-10-25T07:48:29.105Z,12.21
2023-10-25T07:51:04.445Z,12.25
2023-10-25T07:53:32.101Z,12.35
2023-10-25T07:58:33.486Z,12.41
2023-10-25T08:01:00.933Z,12.42
2023-10-25T08:03:30.818Z,12.37
2023-10-25T08:05:58.464Z,12.34
2023-10-25T08:08:25.639Z,12.40
2023-10-25T08:11:03.240Z,12.41
2023-10-25T08:13:31.394Z,12.48
2023-10-25T08:15:59.534Z,12.54
2023-10-25T08:18:32.255Z,12.54
2023-10-25T08:21:01.079Z,12.57
2023-10-25T08:23:28.799Z,12.61
2023-10-25T08:26:00.399Z,12.66
2023-10-25T08:28:27.430Z,12.69
2023-10-25T08:30:54.372Z,12.78
2023-10-25T08:33:21.381Z,12.77
2023-10-25T08:35:48.420Z,12.80
2023-10-25T08:38:15.570Z,12.89
2023-10-25T08:40:42.801Z,12.93
2023-10-25T08:43:10.445Z,12.91
2023-10-25T08:45:37.610Z,12.89
2023-10-25T08:48:06.035Z,12.98
2023-10-25T08:50:33.284Z,12.94
2023-10-25T08:53:04.013Z,12.98
2023-10-25T08:55:31.207Z,12.98
2023-10-25T08:57:58.195Z,13.00
2023-10-25T09:00:43.490Z,13.04
2023-10-25T09:03:32.145Z,13.08
2023-10-25T09:05:59.860Z,13.14
2023-10-25T09:08:28.190Z,13.19
2023-10-25T09:11:04.182Z,13.22
2023-10-25T09:13:33.455Z,13.26
2023-10-25T09:16:07.504Z,13.31
2023-10-25T09:18:36.308Z,13.34
2023-10-25T09:21:12.170Z,13.37
2023-10-25T09:23:40.563Z,13.37
2023-10-25T09:26:19.620Z,13.24
2023-10-25T09:28:49.628Z,13.21
2023-10-25T09:31:28.875Z,13.20
2023-10-25T09:34:00.971Z,13.17
2023-10-25T09:36:29.106Z,13.14
2023-10-25T09:38:56.960Z,13.16
2023-10-25T09:41:25.832Z,13.18
2023-10-25T09:44:08.156Z,13.28
2023-10-25T09:46:36.141Z,13.30
2023-10-25T09:49:11.515Z,13.31
2023-10-25T09:51:53.632Z,13.30
2023-10-25T09:54:29.862Z,13.28
2023-10-25T09:56:58.768Z,13.30
2023-10-25T09:59:28.324Z,13.36
2023-10-25T10:01:57.172Z,13.45
2023-10-25T10:04:41.703Z,13.57
2023-10-25T10:07:55.060Z,13.65
2023-10-25T10:10:57.681Z,13.83
2023-10-25T10:13:25.246Z,13.87
2023-10-25T10:16:00.641Z,13.92
2023-10-25T10:18:29.774Z,13.92
2023-10-25T10:21:02.258Z,13.82
2023-10-25T10:23:40.740Z,13.77
2023-10-25T10:26:09.747Z,13.80
2023-10-25T10:28:43.371Z,13.77
2023-10-25T10:31:12.980Z,13.70
2023-10-25T10:33:50.881Z,13.71
2023-10-25T10:36:28.669Z,13.71
2023-10-25T10:39:15.323Z,13.67
2023-10-25T10:41:44.281Z,13.70
2023-10-25T10:44:12.852Z,13.70
2023-10-25T10:46:54.653Z,13.68
2023-10-25T10:49:22.564Z,13.75
2023-10-25T10:51:50.677Z,13.74
2023-10-25T10:54:17.691Z,13.73
2023-10-25T10:56:45.505Z,13.78
2023-10-25T10:59:12.493Z,13.71
2023-10-25T11:01:39.510Z,13.72
2023-10-25T11:04:07.531Z,13.69
2023-10-25T11:06:34.561Z,13.71
2023-10-25T11:09:02.293Z,13.81
2023-10-25T11:11:29.339Z,13.79
2023-10-25T11:13:56.424Z,13.85
2023-10-25T11:16:23.456Z,13.84
2023-10-25T11:18:50.515Z,13.78
2023-10-25T11:21:17.498Z,13.75
2023-10-25T11:23:44.688Z,13.76
2023-10-25T11:26:11.769Z,13.83
2023-10-25T11:28:41.984Z,13.88
2023-10-25T11:31:09.069Z,13.83
2023-10-25T11:33:46.606Z,13.82
2023-10-25T11:36:13.693Z,13.83
2023-10-25T11:38:45.676Z,13.88
2023-10-25T11:41:12.860Z,13.99
2023-10-25T11:43:40.803Z,14.00
2023-10-25T11:46:07.850Z,14.01
2023-10-25T11:48:36.532Z,14.00
2023-10-25T11:51:04.905Z,14.09
2023-10-25T11:53:31.887Z,14.17
2023-10-25T11:56:03.600Z,14.14
2023-10-25T11:58:31.834Z,14.17
2023-10-25T12:00:59.640Z,14.23
2023-10-25T12:03:26.773Z,14.23
2023-10-25T12:05:53.770Z,14.27
2023-10-25T12:08:20.764Z,14.32
2023-10-25T12:10:47.931Z,14.36
2023-10-25T12:13:14.925Z,14.40
2023-10-25T12:15:41.895Z,14.49
2023-10-25T12:18:09.011Z,14.55
2023-10-25T12:20:36.227Z,14.57
2023-10-25T12:23:03.482Z,14.58
2023-10-25T12:25:36.293Z,14.63
2023-10-25T12:28:03.040Z,14.64
2023-10-25T12:30:30.142Z,14.68
2023-10-25T12:32:57.800Z,14.63
2023-10-25T12:35:27.662Z,14.65
2023-10-25T12:37:54.613Z,14.61
2023-10-25T12:40:21.636Z,14.64
2023-10-25T12:42:50.202Z,14.64
2023-10-25T12:45:24.102Z,14.59
2023-10-25T12:47:51.204Z,14.59
2023-10-25T12:50:18.289Z,14.54
2023-10-25T12:52:45.421Z,14.55
2023-10-25T12:55:21.316Z,14.61
2023-10-25T12:57:48.385Z,14.61
2023-10-25T13:00:15.578Z,14.65
2023-10-25T13:02:42.525Z,14.60
2023-10-25T13:05:09.779Z,14.57
2023-10-25T13:07:37.103Z,14.66
2023-10-25T13:10:05.201Z,14.65
2023-10-25T13:12:33.849Z,14.68
2023-10-25T13:15:00.771Z,14.63
2023-10-25T13:17:27.848Z,14.67
2023-10-25T13:19:57.250Z,14.76
2023-10-25T13:22:24.427Z,14.78
2023-10-25T13:24:51.461Z,14.80
2023-10-25T13:27:18.430Z,14.75
2023-10-25T13:29:45.646Z,14.76
2023-10-25T13:32:12.732Z,14.86
2023-10-25T13:34:39.813Z,14.83
2023-10-25T13:37:07.917Z,14.86
2023-10-25T13:39:35.333Z,14.87
2023-10-25T13:42:02.425Z,14.91
2023-10-25T13:44:29.380Z,14.92
2023-10-25T13:46:56.672Z,14.96
2023-10-25T13:49:23.548Z,14.96
2023-10-25T13:51:51.811Z,14.88
2023-10-25T13:54:18.855Z,14.86
2023-10-25T13:56:45.862Z,14.81
2023-10-25T13:59:12.819Z,14.80
2023-10-25T14:01:42.791Z,14.88
2023-10-25T14:04:16.705Z,14.88
2023-10-25T14:06:44.310Z,14.90
2023-10-25T14:09:11.710Z,14.91
2023-10-25T14:11:38.768Z,14.89
2023-10-25T14:14:05.750Z,14.87
2023-10-25T14:16:32.638Z,14.92
2023-10-25T14:18:59.970Z,14.89
2023-10-25T14:21:26.898Z,14.85
2023-10-25T14:23:53.933Z,14.85
2023-10-25T14:26:20.958Z,14.84
2023-10-25T14:28:47.887Z,14.87
2023-10-25T14:31:16.593Z,14.88
2023-10-25T14:33:44.002Z,14.94
2023-10-25T14:36:15.352Z,15.01
2023-10-25T14:38:42.495Z,15.04
2023-10-25T14:41:13.307Z,14.99
2023-10-25T14:43:40.752Z,15.04
2023-10-25T14:46:20.443Z,15.02
2023-10-25T14:48:48.408Z,14.99
2023-10-25T14:51:21.194Z,15.02
2023-10-25T14:53:49.698Z,14.98
2023-10-25T14:56:16.785Z,15.07
2023-10-25T14:58:43.730Z,15.05
2023-10-25T15:01:24.284Z,15.00
2023-10-25T15:03:54.070Z,14.99
2023-10-25T15:06:27.140Z,15.01
2023-10-25T15:08:55.099Z,15.03
2023-10-25T15:11:22.723Z,15.03
2023-10-25T15:13:49.608Z,15.01
2023-10-25T15:16:16.743Z,15.06
2023-10-25T15:18:46.751Z,15.05
2023-10-25T15:21:15.163Z,15.11
2023-10-25T15:23:43.171Z,15.09
2023-10-25T15:26:10.477Z,15.07
2023-10-25T15:28:38.219Z,15.06
2023-10-25T15:31:09.608Z,15.03
2023-10-25T15:33:37.750Z,14.99
2023-10-25T15:36:05.391Z,14.95
2023-10-25T15:38:33.845Z,14.87
2023-10-25T15:41:17.466Z,14.81
2023-10-25T15:43:45.026Z,14.86
2023-10-25T15:46:12.047Z,14.81
2023-10-25T15:48:47.352Z,14.72
2023-10-25T15:51:15.040Z,14.69
2023-10-25T15:53:43.555Z,14.65
2023-10-25T15:56:12.054Z,14.63
2023-10-25T15:58:39.450Z,14.62
2023-10-25T16:01:20.185Z,14.62
2023-10-25T16:03:55.844Z,14.61
2023-10-25T16:06:23.122Z,14.60
2023-10-25T16:08:50.186Z,14.60
2023-10-25T16:11:18.489Z,14.56
2023-10-25T16:13:47.094Z,14.54
2023-10-25T16:16:14.075Z,14.53
2023-10-25T16:18:41.231Z,14.51
2023-10-25T16:21:08.873Z,14.49
2023-10-25T16:23:42.787Z,14.47
2023-10-25T16:26:14.636Z,14.46
2023-10-25T16:28:43.601Z,14.42
2023-10-25T16:31:10.827Z,14.42
2023-10-25T16:33:42.295Z,14.41
2023-10-25T16:36:12.750Z,14.41
2023-10-25T16:38:39.759Z,14.41
2023-10-25T16:41:11.922Z,14.42
2023-10-25T16:43:40.506Z,14.44
2023-10-25T16:46:14.490Z,14.41
2023-10-25T16:48:43.666Z,14.37
2023-10-25T16:51:21.328Z,14.34
2023-10-25T16:53:50.195Z,14.30
2023-10-25T16:56:20.870Z,14.28
2023-10-25T16:58:48.382Z,14.27
2023-10-25T17:01:16.506Z,14.28
2023-10-25T17:03:44.720Z,14.30
2023-10-25T17:06:14.378Z,14.29
2023-10-25T17:08:42.701Z,14.24
2023-10-25T17:11:14.384Z,14.20
2023-10-25T17:13:41.516Z,14.17
2023-10-25T17:16:09.554Z,14.17
2023-10-25T17:18:37.462Z,14.14
2023-10-25T17:21:10.273Z,14.11
2023-10-25T17:23:37.780Z,14.08
2023-10-25T17:26:05.234Z,14.08
2023-10-25T17:28:34.707Z,14.05
2023-10-25T17:31:02.208Z,14.03
2023-10-25T17:33:30.327Z,14.05
2023-10-25T17:35:58.826Z,14.05
2023-10-25T17:38:25.823Z,14.03
2023-10-25T17:40:53.678Z,14.04
2023-10-25T17:43:21.406Z,13.99
2023-10-25T17:46:10.702Z,14.00
2023-10-25T17:48:38.731Z,13.94
2023-10-25T17:51:09.822Z,13.90
2023-10-25T17:53:37.504Z,13.86
2023-10-25T17:56:05.118Z,13.81
2023-10-25T17:58:32.614Z,13.81
2023-10-25T18:01:00.616Z,13.80
2023-10-25T18:03:27.981Z,13.77
2023-10-25T18:05:55.148Z,13.75
2023-10-25T18:08:25.759Z,13.73
2023-10-25T18:10:56.659Z,13.69
2023-10-25T18:13:25.141Z,13.64
2023-10-25T18:15:52.740Z,13.64
2023-10-25T18:18:20.784Z,13.59
2023-10-25T18:20:51.699Z,13.56
2023-10-25T18:23:20.162Z,13.49
2023-10-25T18:25:47.116Z,13.43
2023-10-25T18:28:14.069Z,13.47
2023-10-25T18:31:59.606Z,13.46
2023-10-25T18:33:29.111Z,13.43
2023-10-25T18:35:56.677Z,13.47
2023-10-25T18:38:23.600Z,13.45
2023-10-25T18:40:58.468Z,13.38
2023-10-25T18:43:26.886Z,13.33
2023-10-25T18:46:10.728Z,13.34
2023-10-25T18:48:37.969Z,13.31
2023-10-25T18:51:06.664Z,13.31
2023-10-25T18:53:33.641Z,13.32
2023-10-25T18:56:01.786Z,13.35
2023-10-25T18:58:29.712Z,13.41
2023-10-25T19:01:00.260Z,13.37
2023-10-25T19:03:29.361Z,13.37
2023-10-25T19:06:23.148Z,13.40
2023-10-25T19:08:44.301Z,13.40
2023-10-25T19:11:11.920Z,13.42
2023-10-25T19:13:41.771Z,13.43
2023-10-25T19:16:10.296Z,13.43
2023-10-25T19:18:37.462Z,13.45
2023-10-25T19:21:07.653Z,13.42
2023-10-25T19:23:34.680Z,13.39
2023-10-25T19:26:03.991Z,13.41
2023-10-25T19:28:31.017Z,13.43
2023-10-25T19:30:58.132Z,13.44
2023-10-25T19:33:25.344Z,13.42
2023-10-25T19:35:52.511Z,13.44
2023-10-25T19:38:19.369Z,13.41
2023-10-25T19:40:46.377Z,13.41
2023-10-25T19:43:13.276Z,13.42
2023-10-25T19:45:40.165Z,13.45
2023-10-25T19:48:07.972Z,13.43
2023-10-25T19:50:35.319Z,13.43
2023-10-25T19:53:02.643Z,13.40
2023-10-25T19:55:29.650Z,13.36
2023-10-25T19:57:56.494Z,13.39
2023-10-25T20:00:24.642Z,13.35
2023-10-25T20:02:51.898Z,13.36
2023-10-25T20:05:22.586Z,13.40
2023-10-25T20:07:49.436Z,13.42
2023-10-25T20:10:17.535Z,13.40
2023-10-25T20:12:44.768Z,13.41
2023-10-25T20:15:14.907Z,13.36
2023-10-25T20:17:42.271Z,13.34
2023-10-25T20:20:09.648Z,13.33
2023-10-25T20:22:37.373Z,13.33
2023-10-25T20:25:07.491Z,13.32
2023-10-25T20:27:36.605Z,13.32
2023-10-25T20:30:04.484Z,13.30
2023-10-25T20:32:32.858Z,13.32
2023-10-25T20:35:00.460Z,13.31
2023-10-25T20:37:27.731Z,13.25
2023-10-25T20:39:54.848Z,13.21
2023-10-25T20:42:21.951Z,13.21
2023-10-25T20:44:49.043Z,13.20
2023-10-25T20:47:16.255Z,13.17
2023-10-25T20:49:43.219Z,13.15
2023-10-25T20:52:11.253Z,13.11
2023-10-25T20:54:38.312Z,13.08
2023-10-25T20:57:05.483Z,13.08
2023-10-25T20:59:32.454Z,13.06
2023-10-25T21:01:59.498Z,13.06
2023-10-25T21:04:28.056Z,13.08
2023-10-25T21:06:55.104Z,13.07
2023-10-25T21:09:22.036Z,13.06
2023-10-25T21:11:49.562Z,13.04
2023-10-25T21:14:16.952Z,13.04
2023-10-25T21:16:43.894Z,13.01
2023-10-25T21:19:10.893Z,13.01
2023-10-25T21:21:37.830Z,13.00
2023-10-25T21:24:05.435Z,12.99
2023-10-25T21:26:32.512Z,12.98
2023-10-25T21:28:59.544Z,12.98
2023-10-25T21:31:28.539Z,12.97
2023-10-25T21:33:55.606Z,12.99
2023-10-25T21:36:24.506Z,13.02
2023-10-25T21:38:51.634Z,13.03
2023-10-25T21:41:18.627Z,13.02
2023-10-25T21:43:45.603Z,13.02
2023-10-25T21:46:13.057Z,12.98
2023-10-25T21:48:41.509Z,12.98
2023-10-25T21:51:10.037Z,12.98
2023-10-25T21:53:39.589Z,12.96
2023-10-25T21:56:21.608Z,12.95
2023-10-25T21:59:51.944Z,12.99
2023-10-25T22:01:44.340Z,13.01
2023-10-25T22:04:11.315Z,13.01
2023-10-25T22:06:38.525Z,13.04
2023-10-25T22:09:07.750Z,13.06
2023-10-25T22:11:34.682Z,13.04
2023-10-25T22:14:01.598Z,13.08
2023-10-25T22:16:28.498Z,13.09
2023-10-25T22:18:55.638Z,13.09
2023-10-25T22:21:22.741Z,13.13
2023-10-25T22:23:49.652Z,13.12
2023-10-25T22:26:16.792Z,13.14
2023-10-25T22:28:44.198Z,13.15
2023-10-25T22:31:11.461Z,13.13
2023-10-25T22:33:38.651Z,13.14
2023-10-25T22:36:09.991Z,13.13
2023-10-25T22:38:39.790Z,13.13
2023-10-25T22:41:13.120Z,13.14
2023-10-25T22:43:44.451Z,13.15
2023-10-25T22:46:11.556Z,13.12
2023-10-25T22:48:38.832Z,13.11
2023-10-25T22:51:07.592Z,13.10
2023-10-25T22:53:34.529Z,13.12
2023-10-25T22:56:05.259Z,13.14
2023-10-25T22:58:32.129Z,13.16
2023-10-25T23:00:59.064Z,13.16
2023-10-25T23:03:26.144Z,13.18
2023-10-25T23:05:53.384Z,13.20
2023-10-25T23:08:20.527Z,13.20
2023-10-25T23:10:47.438Z,13.21
2023-10-25T23:13:15.792Z,13.22
2023-10-25T23:15:43.059Z,13.22
2023-10-25T23:18:10.094Z,13.25
2023-10-25T23:20:37.204Z,13.25
2023-10-25T23:23:04.179Z,13.28
2023-10-25T23:25:31.090Z,13.26
2023-10-25T23:27:58.140Z,13.26
2023-10-25T23:30:25.108Z,13.30
2023-10-25T23:32:52.092Z,13.33
2023-10-25T23:35:18.998Z,13.32
2023-10-25T23:37:45.871Z,13.32
2023-10-25T23:40:12.916Z,13.37
2023-10-25T23:42:39.861Z,13.37
2023-10-25T23:45:10.619Z,13.39
2023-10-25T23:47:37.607Z,13.39
2023-10-25T23:50:04.766Z,13.40
2023-10-25T23:52:31.684Z,13.36
2023-10-25T23:54:58.903Z,13.40
2023-10-25T23:57:26.032Z,13.40
2023-10-25T23:59:53.066Z,13.40
